Albia, New York
Current Conditions -  °F | °C
As of 5:09 AM on Sunday 25 Jan 2015 (Local Time) from KALB Reporting Station
Light Snow Light Snow  
Wind Chill: 28°   Ceiling: 3000
Heat Index: 35°   Visibility: 10mi
Dew Point: 26°   Wind: 9mph
Humidity: 70%   Direction: 260°W
Pressure: 29.5"   Gusts: NA
Location:  42.7478°N, 73.6049°W
Report Text: KALB 251009Z 26008KT 10SM -SN SCT026 BKN030 OVC055 02/M03 A2950 RMK AO2 SCT V BKN P0000 T00171033
Loading
Personal Weather Stations






























Interactive Weather Map New forecast layout! Learn more

10-Day Weather Forecast

Advertisements
Track Severe Weather on mobile